createdAt,value
2023-01-25T04:42:12.711Z,102054.16
2023-01-25T04:45:16.990Z,102061.88
2023-01-25T04:48:19.917Z,102055.66
2023-01-25T04:51:23.549Z,102057.31
2023-01-25T04:54:26.945Z,102051.75
2023-01-25T04:57:30.096Z,102044.38
2023-01-25T05:00:35.647Z,102041.38
2023-01-25T05:03:38.841Z,102047.50
2023-01-25T05:06:42.203Z,102046.00
2023-01-25T05:09:45.082Z,102046.81
2023-01-25T05:12:48.616Z,102052.81
2023-01-25T05:15:51.523Z,102049.44
2023-01-25T05:18:57.534Z,102059.31
2023-01-25T05:22:07.319Z,102055.09
2023-01-25T05:25:31.838Z,102050.87
2023-01-25T05:28:36.050Z,102052.50
2023-01-25T05:31:40.722Z,102056.81
2023-01-25T05:34:46.813Z,102055.88
2023-01-25T05:37:49.850Z,102060.25
2023-01-25T05:40:58.310Z,102061.16
2023-01-25T05:44:01.205Z,102062.31
2023-01-25T05:47:05.233Z,102049.53
2023-01-25T05:50:09.543Z,102047.81
2023-01-25T05:53:14.428Z,102055.69
2023-01-25T05:56:17.193Z,102048.78
2023-01-25T05:59:20.198Z,102051.59
2023-01-25T06:02:23.764Z,102047.53
2023-01-25T06:05:26.662Z,102056.25
2023-01-25T06:08:31.491Z,102056.31
2023-01-25T06:11:34.438Z,102055.62
2023-01-25T06:14:37.158Z,102058.13
2023-01-25T06:17:42.107Z,102061.59
2023-01-25T06:20:47.086Z,102060.84
2023-01-25T06:23:50.023Z,102061.84
2023-01-25T06:26:52.738Z,102076.34
2023-01-25T06:29:55.615Z,102079.84
2023-01-25T06:32:58.825Z,102078.78
2023-01-25T06:36:13.389Z,102075.13
2023-01-25T06:39:16.228Z,102082.62
2023-01-25T06:42:19.567Z,102082.47
2023-01-25T06:45:22.161Z,102085.62
2023-01-25T06:48:25.217Z,102086.41
2023-01-25T06:51:27.957Z,102093.38
2023-01-25T06:54:30.968Z,102087.28
2023-01-25T06:57:34.259Z,102077.84
2023-01-25T07:00:39.236Z,102078.53
2023-01-25T07:03:43.402Z,102076.78
2023-01-25T07:06:46.407Z,102081.22
2023-01-25T07:09:49.275Z,102082.91
2023-01-25T07:12:52.209Z,102085.84
2023-01-25T07:15:55.563Z,102080.25
2023-01-25T07:18:58.407Z,102088.41
2023-01-25T07:22:01.147Z,102074.16
2023-01-25T07:25:05.075Z,102072.91
2023-01-25T07:28:07.754Z,102077.00
2023-01-25T07:31:11.509Z,102070.63
2023-01-25T07:34:14.664Z,102084.72
2023-01-25T07:37:17.700Z,102083.91
2023-01-25T07:40:20.488Z,102081.22
2023-01-25T07:43:24.768Z,102083.63
2023-01-25T07:46:27.647Z,102073.97
2023-01-25T07:49:30.628Z,102073.78
2023-01-25T07:52:33.275Z,102069.69
2023-01-25T07:55:36.655Z,102079.44
2023-01-25T07:58:40.176Z,102077.97
2023-01-25T08:01:43.259Z,102075.56
2023-01-25T08:04:46.212Z,102073.25
2023-01-25T08:07:49.044Z,102070.94
2023-01-25T08:10:52.624Z,102077.91
2023-01-25T08:13:55.775Z,102081.44
2023-01-25T08:16:58.774Z,102072.84
2023-01-25T08:20:01.957Z,102071.31
2023-01-25T08:23:05.034Z,102082.06
2023-01-25T08:26:10.641Z,102060.66
2023-01-25T08:29:13.801Z,102062.56
2023-01-25T08:32:17.312Z,102063.53
2023-01-25T08:35:20.248Z,102065.22
2023-01-25T08:38:23.690Z,102062.66
2023-01-25T08:41:29.015Z,102056.69
2023-01-25T08:44:31.991Z,102059.50
2023-01-25T08:47:34.782Z,102054.41
2023-01-25T08:50:37.430Z,102053.56
2023-01-25T08:53:40.641Z,102056.19
2023-01-25T08:56:43.637Z,102057.97
2023-01-25T08:59:47.807Z,102051.81
2023-01-25T09:02:50.655Z,102049.28
2023-01-25T09:05:54.428Z,102051.84
2023-01-25T09:08:59.206Z,102057.09
2023-01-25T09:12:02.269Z,102052.72
2023-01-25T09:15:05.465Z,102052.78
2023-01-25T09:18:09.212Z,102060.63
2023-01-25T09:21:14.974Z,102046.72
2023-01-25T09:24:18.075Z,102050.16
2023-01-25T09:27:20.882Z,102045.78
2023-01-25T09:30:40.807Z,102047.50
2023-01-25T09:33:52.164Z,102038.78
2023-01-25T09:36:55.002Z,102042.25
2023-01-25T09:39:57.599Z,102048.13
2023-01-25T09:43:13.170Z,102048.13
2023-01-25T09:46:42.240Z,102043.81
2023-01-25T09:49:59.623Z,102038.53
2023-01-25T09:53:27.803Z,102027.34
2023-01-25T09:56:36.006Z,102016.03
2023-01-25T09:59:41.632Z,102010.00
2023-01-25T10:02:50.101Z,102018.75
2023-01-25T10:05:57.000Z,102006.66
2023-01-25T10:09:08.709Z,102004.06
2023-01-25T10:12:23.125Z,101998.88
2023-01-25T10:15:33.136Z,101988.41
2023-01-25T10:18:45.088Z,101987.53
2023-01-25T10:22:01.222Z,101985.81
2023-01-25T10:25:34.152Z,101978.00
2023-01-25T10:28:50.434Z,101969.28
2023-01-25T10:32:12.929Z,101969.28
2023-01-25T10:35:33.326Z,101968.38
2023-01-25T10:38:45.471Z,101959.66
2023-01-25T10:41:58.276Z,101956.06
2023-01-25T10:45:00.901Z,101953.41
2023-01-25T10:48:11.905Z,101949.16
2023-01-25T10:51:33.690Z,101951.72
2023-01-25T10:54:37.108Z,101953.53
2023-01-25T10:57:44.490Z,101940.47
2023-01-25T11:00:52.353Z,101939.56
2023-01-25T11:03:55.163Z,101933.44
2023-01-25T11:06:59.093Z,101938.69
2023-01-25T11:10:01.890Z,101927.34
2023-01-25T11:13:13.953Z,101922.94
2023-01-25T11:16:33.117Z,101923.81
2023-01-25T11:19:38.870Z,101915.13
2023-01-25T11:22:53.545Z,101913.44
2023-01-25T11:26:12.595Z,101902.06
2023-01-25T11:29:17.135Z,101900.31
2023-01-25T11:32:22.812Z,101889.81
2023-01-25T11:35:33.328Z,101883.66
2023-01-25T11:38:37.719Z,101876.69
2023-01-25T11:41:53.261Z,101870.50
2023-01-25T11:45:46.456Z,101854.81
2023-01-25T11:49:10.158Z,101860.87
2023-01-25T11:52:29.732Z,101843.56
2023-01-25T11:55:41.710Z,101837.37
2023-01-25T11:59:05.812Z,101822.53
2023-01-25T12:02:10.012Z,101819.94
2023-01-25T12:05:53.489Z,101819.87
2023-01-25T12:09:27.365Z,101809.37
2023-01-25T12:12:42.034Z,101809.34
2023-01-25T12:16:16.374Z,101806.81
2023-01-25T12:19:32.219Z,101803.53
2023-01-25T12:22:46.110Z,101794.88
2023-01-25T12:26:27.754Z,101795.78
2023-01-25T12:29:43.863Z,101785.31
2023-01-25T12:33:14.299Z,101787.91
2023-01-25T12:36:43.226Z,101790.59
2023-01-25T12:39:57.356Z,101794.97
2023-01-25T12:43:01.678Z,101787.25
2023-01-25T12:46:15.377Z,101782.06
2023-01-25T12:49:37.926Z,101781.16
2023-01-25T12:53:18.383Z,101772.44
2023-01-25T12:56:27.153Z,101768.09
2023-01-25T13:00:00.763Z,101768.03
2023-01-25T13:03:25.276Z,101763.69
2023-01-25T13:06:48.055Z,101753.25
2023-01-25T13:10:01.606Z,101747.06
2023-01-25T13:13:24.007Z,101748.84
2023-01-25T13:16:43.240Z,101745.28
2023-01-25T13:19:46.573Z,101742.72
2023-01-25T13:22:49.130Z,101736.72
2023-01-25T13:25:52.185Z,101743.59
2023-01-25T13:28:57.982Z,101742.69
2023-01-25T13:32:03.606Z,101739.25
2023-01-25T13:35:26.647Z,101730.62
2023-01-25T13:38:33.457Z,101727.12
2023-01-25T13:41:36.349Z,101733.97
2023-01-25T13:44:45.770Z,101723.41
2023-01-25T13:48:05.842Z,101725.97
2023-01-25T13:51:14.267Z,101726.84
2023-01-25T13:54:17.497Z,101719.88
2023-01-25T13:57:23.380Z,101718.19
2023-01-25T14:00:27.793Z,101713.00
2023-01-25T14:03:42.854Z,101714.91
2023-01-25T14:06:46.441Z,101710.59
2023-01-25T14:09:50.203Z,101714.87
2023-01-25T14:12:57.976Z,101704.37
2023-01-25T14:16:04.480Z,101707.03
2023-01-25T14:19:25.094Z,101707.94
2023-01-25T14:22:32.402Z,101711.53
2023-01-25T14:25:35.167Z,101709.81
2023-01-25T14:28:38.226Z,101708.09
2023-01-25T14:31:43.401Z,101709.78
2023-01-25T14:34:46.560Z,101708.97
2023-01-25T14:37:49.088Z,101702.06
2023-01-25T14:40:56.899Z,101702.94
2023-01-25T14:44:03.795Z,101703.84
2023-01-25T14:47:31.042Z,101700.41
2023-01-25T14:50:39.082Z,101702.16
2023-01-25T14:53:47.923Z,101700.44
2023-01-25T14:56:56.139Z,101698.75
2023-01-25T14:59:59.974Z,101696.12
2023-01-25T15:03:06.162Z,101695.28
2023-01-25T15:06:13.745Z,101693.53
2023-01-25T15:10:00.767Z,101691.78
2023-01-25T15:13:14.961Z,101677.03
2023-01-25T15:16:18.446Z,101683.09
2023-01-25T15:19:31.360Z,101688.34
2023-01-25T15:22:34.071Z,101690.09
2023-01-25T15:25:58.273Z,101688.34
2023-01-25T15:29:05.776Z,101680.53
2023-01-25T15:32:18.983Z,101685.72
2023-01-25T15:35:21.770Z,101684.84
2023-01-25T15:38:25.575Z,101681.37
2023-01-25T15:41:28.134Z,101679.66
2023-01-25T15:44:31.534Z,101683.97
2023-01-25T15:47:34.190Z,101683.12
2023-01-25T15:50:39.518Z,101676.19
2023-01-25T15:53:42.834Z,101683.12
2023-01-25T15:56:51.650Z,101682.22
2023-01-25T15:59:57.599Z,101681.34
2023-01-25T16:03:00.617Z,101681.37
2023-01-25T16:06:07.603Z,101677.00
2023-01-25T16:09:21.504Z,101673.56
2023-01-25T16:12:25.742Z,101674.41
2023-01-25T16:15:28.484Z,101669.19
2023-01-25T16:18:31.464Z,101670.91
2023-01-25T16:21:33.991Z,101670.91
2023-01-25T16:24:39.522Z,101669.16
2023-01-25T16:27:42.299Z,101669.19
2023-01-25T16:30:46.537Z,101663.97
2023-01-25T16:33:49.686Z,101666.56
2023-01-25T16:36:53.299Z,101662.25
2023-01-25T16:39:56.280Z,101663.13
2023-01-25T16:42:59.267Z,101674.37
